sensor_id;sensor_type;location;lat;lon;timestamp;pressure;altitude;pressure_sealevel;temperature;humidity
5879;BME280;2965;42.640;23.370;2023-08-17T04:01:42;94624.28;;;18.97;100.00
5879;BME280;2965;42.640;23.370;2023-08-17T04:04:09;94628.56;;;18.98;100.00
5879;BME280;2965;42.640;23.370;2023-08-17T04:06:34;94629.34;;;18.98;100.00
5879;BME280;2965;42.640;23.370;2023-08-17T04:09:00;94630.66;;;18.96;100.00
5879;BME280;2965;42.640;23.370;2023-08-17T04:11:26;94630.16;;;18.99;100.00
5879;BME280;2965;42.640;23.370;2023-08-17T04:13:51;94628.09;;;19.01;100.00
5879;BME280;2965;42.640;23.370;2023-08-17T04:16:17;94628.75;;;19.08;100.00
5879;BME280;2965;42.640;23.370;2023-08-17T04:18:42;94631.06;;;19.16;100.00
5879;BME280;2965;42.640;23.370;2023-08-17T04:21:07;94632.56;;;19.12;100.00
5879;BME280;2965;42.640;23.370;2023-08-17T04:23:33;94634.06;;;19.08;100.00
5879;BME280;2965;42.640;23.370;2023-08-17T04:25:58;94626.34;;;19.06;100.00
5879;BME280;2965;42.640;23.370;2023-08-17T04:28:24;94623.47;;;19.08;100.00
5879;BME280;2965;42.640;23.370;2023-08-17T04:30:49;94631.53;;;19.13;100.00
5879;BME280;2965;42.640;23.370;2023-08-17T04:33:14;94627.84;;;19.14;100.00
5879;BME280;2965;42.640;23.370;2023-08-17T04:35:40;94623.69;;;19.18;100.00
5879;BME280;2965;42.640;23.370;2023-08-17T04:38:05;94624.25;;;19.20;100.00
5879;BME280;2965;42.640;23.370;2023-08-17T04:40:31;94631.59;;;19.30;100.00
5879;BME280;2965;42.640;23.370;2023-08-17T04:42:57;94624.78;;;19.34;100.00
5879;BME280;2965;42.640;23.370;2023-08-17T04:45:23;94625.22;;;19.42;100.00
5879;BME280;2965;42.640;23.370;2023-08-17T04:47:48;94617.94;;;19.50;100.00
5879;BME280;2965;42.640;23.370;2023-08-17T04:52:47;94626.00;;;19.67;100.00
5879;BME280;2965;42.640;23.370;2023-08-17T04:55:13;94624.59;;;19.76;100.00
5879;BME280;2965;42.640;23.370;2023-08-17T04:57:39;94621.84;;;19.87;100.00
5879;BME280;2965;42.640;23.370;2023-08-17T05:00:05;94622.19;;;19.91;100.00
5879;BME280;2965;42.640;23.370;2023-08-17T05:02:34;94626.88;;;20.01;100.00
5879;BME280;2965;42.640;23.370;2023-08-17T05:04:59;94608.94;;;20.08;100.00
5879;BME280;2965;42.640;23.370;2023-08-17T05:07:24;94613.16;;;20.21;100.00
5879;BME280;2965;42.640;23.370;2023-08-17T05:12:20;94615.66;;;20.44;100.00
5879;BME280;2965;42.640;23.370;2023-08-17T05:14:46;94608.09;;;20.53;100.00
5879;BME280;2965;42.640;23.370;2023-08-17T05:17:11;94613.59;;;20.63;100.00
5879;BME280;2965;42.640;23.370;2023-08-17T05:19:36;94615.00;;;20.71;100.00
5879;BME280;2965;42.640;23.370;2023-08-17T05:22:03;94613.81;;;20.78;100.00
5879;BME280;2965;42.640;23.370;2023-08-17T05:24:28;94609.69;;;20.87;100.00
5879;BME280;2965;42.640;23.370;2023-08-17T05:26:54;94614.31;;;20.97;100.00
5879;BME280;2965;42.640;23.370;2023-08-17T05:29:19;94611.50;;;21.04;100.00
5879;BME280;2965;42.640;23.370;2023-08-17T05:31:45;94621.41;;;21.08;100.00
5879;BME280;2965;42.640;23.370;2023-08-17T05:34:10;94608.50;;;21.17;100.00
5879;BME280;2965;42.640;23.370;2023-08-17T05:36:36;94617.13;;;21.29;100.00
5879;BME280;2965;42.640;23.370;2023-08-17T05:39:01;94613.53;;;21.35;100.00
5879;BME280;2965;42.640;23.370;2023-08-17T05:41:26;94612.59;;;21.47;100.00
5879;BME280;2965;42.640;23.370;2023-08-17T05:43:52;94621.44;;;21.52;100.00
5879;BME280;2965;42.640;23.370;2023-08-17T05:46:17;94617.53;;;21.60;100.00
5879;BME280;2965;42.640;23.370;2023-08-17T05:48:42;94622.94;;;21.65;100.00
5879;BME280;2965;42.640;23.370;2023-08-17T05:51:08;94621.91;;;21.71;100.00
5879;BME280;2965;42.640;23.370;2023-08-17T05:53:33;94617.13;;;21.73;100.00
5879;BME280;2965;42.640;23.370;2023-08-17T05:55:59;94623.88;;;21.81;100.00
5879;BME280;2965;42.640;23.370;2023-08-17T05:58:24;94628.22;;;21.87;100.00
5879;BME280;2965;42.640;23.370;2023-08-17T06:00:49;94625.63;;;21.92;100.00
5879;BME280;2965;42.640;23.370;2023-08-17T06:03:15;94630.22;;;22.02;100.00
5879;BME280;2965;42.640;23.370;2023-08-17T06:05:40;94628.69;;;22.06;100.00
5879;BME280;2965;42.640;23.370;2023-08-17T06:08:06;94627.22;;;22.20;100.00
5879;BME280;2965;42.640;23.370;2023-08-17T06:12:56;94631.03;;;22.29;100.00
5879;BME280;2965;42.640;23.370;2023-08-17T06:15:23;94628.41;;;22.34;100.00
5879;BME280;2965;42.640;23.370;2023-08-17T06:17:48;94624.22;;;22.44;100.00
5879;BME280;2965;42.640;23.370;2023-08-17T06:20:15;94628.53;;;22.45;100.00
5879;BME280;2965;42.640;23.370;2023-08-17T06:22:41;94633.09;;;22.49;100.00
5879;BME280;2965;42.640;23.370;2023-08-17T06:25:07;94621.56;;;22.44;100.00
5879;BME280;2965;42.640;23.370;2023-08-17T06:27:33;94625.47;;;22.63;100.00
5879;BME280;2965;42.640;23.370;2023-08-17T06:29:59;94629.25;;;22.72;100.00
5879;BME280;2965;42.640;23.370;2023-08-17T06:32:25;94632.25;;;22.81;100.00
5879;BME280;2965;42.640;23.370;2023-08-17T06:34:50;94629.94;;;22.89;100.00
5879;BME280;2965;42.640;23.370;2023-08-17T06:37:16;94634.53;;;22.99;100.00
5879;BME280;2965;42.640;23.370;2023-08-17T06:39:41;94640.22;;;23.13;100.00
5879;BME280;2965;42.640;23.370;2023-08-17T06:42:06;94632.00;;;23.25;100.00
5879;BME280;2965;42.640;23.370;2023-08-17T06:44:32;94641.41;;;23.37;100.00
5879;BME280;2965;42.640;23.370;2023-08-17T06:46:57;94643.06;;;23.49;100.00
5879;BME280;2965;42.640;23.370;2023-08-17T06:49:24;94640.97;;;23.61;100.00
5879;BME280;2965;42.640;23.370;2023-08-17T06:51:49;94633.81;;;23.66;100.00
5879;BME280;2965;42.640;23.370;2023-08-17T06:54:15;94637.56;;;23.76;100.00
5879;BME280;2965;42.640;23.370;2023-08-17T06:56:40;94636.28;;;23.88;100.00
5879;BME280;2965;42.640;23.370;2023-08-17T06:59:05;94640.84;;;23.98;100.00
5879;BME280;2965;42.640;23.370;2023-08-17T07:01:32;94640.03;;;23.98;100.00
5879;BME280;2965;42.640;23.370;2023-08-17T07:03:57;94638.22;;;24.08;100.00
5879;BME280;2965;42.640;23.370;2023-08-17T07:06:24;94639.53;;;24.21;100.00
5879;BME280;2965;42.640;23.370;2023-08-17T07:08:49;94642.25;;;24.26;100.00
5879;BME280;2965;42.640;23.370;2023-08-17T07:11:14;94640.63;;;24.25;100.00
5879;BME280;2965;42.640;23.370;2023-08-17T07:13:40;94643.09;;;24.37;100.00
5879;BME280;2965;42.640;23.370;2023-08-17T07:16:05;94641.47;;;24.46;100.00
5879;BME280;2965;42.640;23.370;2023-08-17T07:18:30;94636.94;;;24.57;100.00
5879;BME280;2965;42.640;23.370;2023-08-17T07:20:56;94634.81;;;24.64;100.00
5879;BME280;2965;42.640;23.370;2023-08-17T07:23:21;94627.56;;;24.64;95.42
5879;BME280;2965;42.640;23.370;2023-08-17T07:25:47;94637.75;;;24.73;94.20
5879;BME280;2965;42.640;23.370;2023-08-17T07:28:12;94635.31;;;24.86;94.44
5879;BME280;2965;42.640;23.370;2023-08-17T07:30:37;94632.63;;;24.91;90.87
5879;BME280;2965;42.640;23.370;2023-08-17T07:33:03;94629.41;;;25.00;90.43
5879;BME280;2965;42.640;23.370;2023-08-17T07:35:28;94632.09;;;25.10;89.96
5879;BME280;2965;42.640;23.370;2023-08-17T07:37:53;94629.41;;;25.20;88.36
5879;BME280;2965;42.640;23.370;2023-08-17T07:40:19;94630.47;;;25.24;87.77
5879;BME280;2965;42.640;23.370;2023-08-17T07:42:45;94625.34;;;25.28;87.78
5879;BME280;2965;42.640;23.370;2023-08-17T07:45:12;94624.03;;;25.30;88.03
5879;BME280;2965;42.640;23.370;2023-08-17T07:47:37;94626.91;;;25.44;89.63
5879;BME280;2965;42.640;23.370;2023-08-17T07:50:06;94623.97;;;25.40;86.41
5879;BME280;2965;42.640;23.370;2023-08-17T07:52:31;94632.28;;;25.39;87.51
5879;BME280;2965;42.640;23.370;2023-08-17T07:54:57;94629.03;;;25.52;87.53
5879;BME280;2965;42.640;23.370;2023-08-17T07:57:22;94631.13;;;25.65;88.82
5879;BME280;2965;42.640;23.370;2023-08-17T07:59:47;94620.13;;;25.72;85.75
5879;BME280;2965;42.640;23.370;2023-08-17T08:02:13;94621.69;;;25.83;88.36
5879;BME280;2965;42.640;23.370;2023-08-17T08:04:38;94614.63;;;25.98;90.11
5879;BME280;2965;42.640;23.370;2023-08-17T08:07:04;94623.97;;;26.05;89.58
5879;BME280;2965;42.640;23.370;2023-08-17T08:09:29;94617.50;;;26.11;87.55
5879;BME280;2965;42.640;23.370;2023-08-17T08:11:54;94609.63;;;26.30;88.68
5879;BME280;2965;42.640;23.370;2023-08-17T08:14:20;94609.28;;;26.37;89.61
5879;BME280;2965;42.640;23.370;2023-08-17T08:16:45;94608.44;;;26.47;88.33
5879;BME280;2965;42.640;23.370;2023-08-17T08:19:12;94604.91;;;26.51;89.14
5879;BME280;2965;42.640;23.370;2023-08-17T08:21:37;94607.78;;;26.60;89.75
5879;BME280;2965;42.640;23.370;2023-08-17T08:24:03;94603.72;;;26.67;86.12
5879;BME280;2965;42.640;23.370;2023-08-17T08:28:57;94604.38;;;26.83;84.69
5879;BME280;2965;42.640;23.370;2023-08-17T08:31:22;94607.53;;;26.90;83.76
5879;BME280;2965;42.640;23.370;2023-08-17T08:33:47;94606.13;;;26.98;85.70
5879;BME280;2965;42.640;23.370;2023-08-17T08:36:13;94610.03;;;27.11;89.68
5879;BME280;2965;42.640;23.370;2023-08-17T08:38:38;94603.03;;;27.15;88.85
5879;BME280;2965;42.640;23.370;2023-08-17T08:41:05;94612.63;;;27.21;82.10
5879;BME280;2965;42.640;23.370;2023-08-17T08:43:30;94609.88;;;27.26;84.34
5879;BME280;2965;42.640;23.370;2023-08-17T08:45:56;94601.72;;;27.36;79.48
5879;BME280;2965;42.640;23.370;2023-08-17T08:48:26;94604.22;;;27.52;82.38
5879;BME280;2965;42.640;23.370;2023-08-17T08:50:54;94602.47;;;27.61;80.05
5879;BME280;2965;42.640;23.370;2023-08-17T08:53:29;94588.72;;;27.67;80.54
5879;BME280;2965;42.640;23.370;2023-08-17T08:55:58;94594.28;;;27.71;77.51
5879;BME280;2965;42.640;23.370;2023-08-17T08:58:29;94586.22;;;27.76;78.67
5879;BME280;2965;42.640;23.370;2023-08-17T09:00:58;94585.84;;;28.02;81.09
5879;BME280;2965;42.640;23.370;2023-08-17T09:03:24;94581.50;;;28.25;78.78
5879;BME280;2965;42.640;23.370;2023-08-17T09:05:50;94585.13;;;28.34;76.44
5879;BME280;2965;42.640;23.370;2023-08-17T09:08:21;94581.41;;;28.49;76.85
5879;BME280;2965;42.640;23.370;2023-08-17T09:10:47;94572.56;;;28.62;79.68
5879;BME280;2965;42.640;23.370;2023-08-17T09:13:13;94566.91;;;28.77;77.14
5879;BME280;2965;42.640;23.370;2023-08-17T09:15:38;94564.22;;;28.77;76.12
5879;BME280;2965;42.640;23.370;2023-08-17T09:18:05;94563.41;;;28.96;75.51
5879;BME280;2965;42.640;23.370;2023-08-17T09:20:44;94557.50;;;28.94;73.29
5879;BME280;2965;42.640;23.370;2023-08-17T09:23:15;94552.94;;;29.08;74.35
5879;BME280;2965;42.640;23.370;2023-08-17T09:25:43;94552.66;;;29.23;72.29
5879;BME280;2965;42.640;23.370;2023-08-17T09:28:10;94552.25;;;29.30;74.95
5879;BME280;2965;42.640;23.370;2023-08-17T09:31:01;94552.63;;;29.51;78.83
5879;BME280;2965;42.640;23.370;2023-08-17T09:33:32;94551.25;;;29.67;71.09
5879;BME280;2965;42.640;23.370;2023-08-17T09:35:58;94537.69;;;29.58;69.21
5879;BME280;2965;42.640;23.370;2023-08-17T09:38:25;94541.16;;;29.73;73.30
5879;BME280;2965;42.640;23.370;2023-08-17T09:40:51;94536.72;;;29.90;70.88
5879;BME280;2965;42.640;23.370;2023-08-17T09:43:17;94526.19;;;30.03;64.42
5879;BME280;2965;42.640;23.370;2023-08-17T09:45:44;94525.41;;;30.02;61.53
5879;BME280;2965;42.640;23.370;2023-08-17T09:48:14;94524.16;;;30.22;64.46
5879;BME280;2965;42.640;23.370;2023-08-17T09:50:42;94531.69;;;30.34;61.72
5879;BME280;2965;42.640;23.370;2023-08-17T09:53:07;94522.69;;;30.38;63.96
5879;BME280;2965;42.640;23.370;2023-08-17T09:55:32;94516.28;;;30.57;63.10
5879;BME280;2965;42.640;23.370;2023-08-17T09:58:02;94522.91;;;30.73;63.01
5879;BME280;2965;42.640;23.370;2023-08-17T10:00:28;94518.81;;;30.84;63.12
5879;BME280;2965;42.640;23.370;2023-08-17T10:02:55;94519.25;;;31.09;63.89
5879;BME280;2965;42.640;23.370;2023-08-17T10:05:23;94524.09;;;31.29;57.22
5879;BME280;2965;42.640;23.370;2023-08-17T10:07:54;94511.56;;;31.33;61.37
5879;BME280;2965;42.640;23.370;2023-08-17T10:10:25;94519.38;;;31.35;61.84
5879;BME280;2965;42.640;23.370;2023-08-17T10:13:43;94515.28;;;31.55;54.75
5879;BME280;2965;42.640;23.370;2023-08-17T10:18:46;94512.47;;;31.95;55.65
5879;BME280;2965;42.640;23.370;2023-08-17T10:21:20;94508.34;;;31.88;59.75
5879;BME280;2965;42.640;23.370;2023-08-17T10:23:48;94514.06;;;32.13;52.04
5879;BME280;2965;42.640;23.370;2023-08-17T10:26:14;94516.13;;;32.33;53.17
5879;BME280;2965;42.640;23.370;2023-08-17T10:28:40;94506.13;;;32.08;52.54
5879;BME280;2965;42.640;23.370;2023-08-17T10:31:06;94507.41;;;32.19;49.80
5879;BME280;2965;42.640;23.370;2023-08-17T10:33:32;94495.59;;;32.32;50.45
5879;BME280;2965;42.640;23.370;2023-08-17T10:36:00;94504.53;;;32.42;52.62
5879;BME280;2965;42.640;23.370;2023-08-17T10:38:26;94504.59;;;32.71;50.62
5879;BME280;2965;42.640;23.370;2023-08-17T10:41:24;94501.25;;;32.74;53.40
5879;BME280;2965;42.640;23.370;2023-08-17T10:43:56;94493.22;;;33.04;51.73
5879;BME280;2965;42.640;23.370;2023-08-17T10:46:21;94496.25;;;33.02;50.02
5879;BME280;2965;42.640;23.370;2023-08-17T10:48:47;94491.38;;;33.55;53.99
5879;BME280;2965;42.640;23.370;2023-08-17T10:51:13;94498.53;;;33.80;48.02
5879;BME280;2965;42.640;23.370;2023-08-17T10:53:40;94483.19;;;33.84;47.26
5879;BME280;2965;42.640;23.370;2023-08-17T10:56:12;94490.88;;;33.82;46.07
5879;BME280;2965;42.640;23.370;2023-08-17T11:01:13;94489.13;;;33.57;44.99
5879;BME280;2965;42.640;23.370;2023-08-17T11:03:41;94490.31;;;33.68;45.01
5879;BME280;2965;42.640;23.370;2023-08-17T11:06:15;94482.00;;;33.52;44.56
5879;BME280;2965;42.640;23.370;2023-08-17T11:08:54;94473.81;;;33.61;43.72
5879;BME280;2965;42.640;23.370;2023-08-17T11:11:21;94475.78;;;33.73;46.78
5879;BME280;2965;42.640;23.370;2023-08-17T11:13:48;94480.81;;;34.04;45.75
5879;BME280;2965;42.640;23.370;2023-08-17T11:16:16;94469.34;;;34.40;47.21
5879;BME280;2965;42.640;23.370;2023-08-17T11:18:42;94478.53;;;34.48;43.71
5879;BME280;2965;42.640;23.370;2023-08-17T11:21:08;94462.56;;;34.46;42.82
5879;BME280;2965;42.640;23.370;2023-08-17T11:23:37;94467.41;;;34.86;43.97
5879;BME280;2965;42.640;23.370;2023-08-17T11:26:04;94466.50;;;34.36;43.69
5879;BME280;2965;42.640;23.370;2023-08-17T11:28:31;94462.00;;;34.20;47.00
5879;BME280;2965;42.640;23.370;2023-08-17T11:31:08;94461.91;;;33.74;42.83
5879;BME280;2965;42.640;23.370;2023-08-17T11:33:35;94461.09;;;33.23;44.82
5879;BME280;2965;42.640;23.370;2023-08-17T11:36:02;94450.22;;;32.94;45.31
5879;BME280;2965;42.640;23.370;2023-08-17T11:38:39;94446.16;;;33.68;48.93
5879;BME280;2965;42.640;23.370;2023-08-17T11:41:05;94453.44;;;33.97;47.55
5879;BME280;2965;42.640;23.370;2023-08-17T11:43:33;94456.06;;;33.84;49.00
5879;BME280;2965;42.640;23.370;2023-08-17T11:46:00;94455.06;;;33.68;50.78
5879;BME280;2965;42.640;23.370;2023-08-17T11:48:26;94435.84;;;33.02;53.38
5879;BME280;2965;42.640;23.370;2023-08-17T11:50:52;94446.03;;;33.34;53.59
5879;BME280;2965;42.640;23.370;2023-08-17T11:53:17;94434.47;;;32.96;55.69
5879;BME280;2965;42.640;23.370;2023-08-17T11:55:43;94445.16;;;32.83;54.79
5879;BME280;2965;42.640;23.370;2023-08-17T11:58:08;94445.16;;;32.83;55.18
5879;BME280;2965;42.640;23.370;2023-08-17T12:00:35;94453.72;;;32.56;54.51
5879;BME280;2965;42.640;23.370;2023-08-17T12:03:02;94448.06;;;32.78;57.44
5879;BME280;2965;42.640;23.370;2023-08-17T12:05:31;94441.28;;;33.61;52.73
5879;BME280;2965;42.640;23.370;2023-08-17T12:07:57;94440.34;;;33.99;48.66
5879;BME280;2965;42.640;23.370;2023-08-17T12:10:22;94442.19;;;34.07;46.61
5879;BME280;2965;42.640;23.370;2023-08-17T12:12:48;94445.56;;;34.37;47.38
5879;BME280;2965;42.640;23.370;2023-08-17T12:15:16;94437.63;;;34.77;48.00
5879;BME280;2965;42.640;23.370;2023-08-17T12:17:49;94432.50;;;34.18;47.75
5879;BME280;2965;42.640;23.370;2023-08-17T12:20:19;94435.47;;;34.58;51.79
5879;BME280;2965;42.640;23.370;2023-08-17T12:22:45;94441.47;;;34.76;49.84
5879;BME280;2965;42.640;23.370;2023-08-17T12:25:11;94432.22;;;35.02;50.62
5879;BME280;2965;42.640;23.370;2023-08-17T12:27:37;94436.06;;;35.01;51.21
5879;BME280;2965;42.640;23.370;2023-08-17T12:30:02;94437.22;;;35.12;53.01
5879;BME280;2965;42.640;23.370;2023-08-17T12:32:28;94438.09;;;34.92;50.31
5879;BME280;2965;42.640;23.370;2023-08-17T12:34:53;94432.75;;;34.58;48.08
5879;BME280;2965;42.640;23.370;2023-08-17T12:37:19;94435.44;;;33.92;51.02
5879;BME280;2965;42.640;23.370;2023-08-17T12:39:48;94431.47;;;33.89;53.36
5879;BME280;2965;42.640;23.370;2023-08-17T12:42:14;94427.63;;;34.11;53.30
5879;BME280;2965;42.640;23.370;2023-08-17T12:44:40;94426.84;;;34.56;49.66
5879;BME280;2965;42.640;23.370;2023-08-17T12:47:05;94433.78;;;34.78;48.55
5879;BME280;2965;42.640;23.370;2023-08-17T12:49:31;94429.97;;;35.04;47.56
5879;BME280;2965;42.640;23.370;2023-08-17T12:51:56;94427.22;;;35.41;50.29
5879;BME280;2965;42.640;23.370;2023-08-17T12:54:21;94429.69;;;35.58;52.58
5879;BME280;2965;42.640;23.370;2023-08-17T12:56:47;94433.09;;;35.55;49.33
5879;BME280;2965;42.640;23.370;2023-08-17T12:59:12;94431.53;;;35.54;49.28
5879;BME280;2965;42.640;23.370;2023-08-17T13:01:38;94430.16;;;35.35;49.12
5879;BME280;2965;42.640;23.370;2023-08-17T13:04:04;94430.28;;;35.39;50.36
5879;BME280;2965;42.640;23.370;2023-08-17T13:06:30;94436.53;;;35.03;51.39
5879;BME280;2965;42.640;23.370;2023-08-17T13:08:55;94429.31;;;35.07;54.23
5879;BME280;2965;42.640;23.370;2023-08-17T13:11:21;94432.56;;;35.00;51.60
5879;BME280;2965;42.640;23.370;2023-08-17T13:13:46;94429.41;;;34.41;55.34
5879;BME280;2965;42.640;23.370;2023-08-17T13:16:11;94434.38;;;34.05;53.05
5879;BME280;2965;42.640;23.370;2023-08-17T13:18:37;94431.06;;;34.00;54.58
5879;BME280;2965;42.640;23.370;2023-08-17T13:21:03;94435.81;;;33.82;57.90
5879;BME280;2965;42.640;23.370;2023-08-17T13:23:28;94436.50;;;33.79;58.48
5879;BME280;2965;42.640;23.370;2023-08-17T13:25:53;94430.81;;;33.93;58.42
5879;BME280;2965;42.640;23.370;2023-08-17T13:28:19;94434.03;;;34.40;52.74
5879;BME280;2965;42.640;23.370;2023-08-17T13:30:44;94433.66;;;34.87;54.73
5879;BME280;2965;42.640;23.370;2023-08-17T13:33:10;94425.97;;;34.64;53.60
5879;BME280;2965;42.640;23.370;2023-08-17T13:35:36;94434.44;;;34.75;55.59
5879;BME280;2965;42.640;23.370;2023-08-17T13:38:01;94435.81;;;34.69;53.38
5879;BME280;2965;42.640;23.370;2023-08-17T13:40:29;94429.66;;;34.48;57.13
5879;BME280;2965;42.640;23.370;2023-08-17T13:42:55;94430.72;;;34.34;54.94
5879;BME280;2965;42.640;23.370;2023-08-17T13:45:20;94432.38;;;34.14;56.95
5879;BME280;2965;42.640;23.370;2023-08-17T13:47:46;94432.47;;;33.64;57.09
5879;BME280;2965;42.640;23.370;2023-08-17T13:50:11;94427.50;;;33.45;58.73
5879;BME280;2965;42.640;23.370;2023-08-17T13:52:37;94433.06;;;33.49;58.89
5879;BME280;2965;42.640;23.370;2023-08-17T13:55:03;94431.94;;;33.20;61.82
5879;BME280;2965;42.640;23.370;2023-08-17T13:57:39;94429.22;;;32.90;59.75
5879;BME280;2965;42.640;23.370;2023-08-17T14:00:04;94435.09;;;32.93;62.73
5879;BME280;2965;42.640;23.370;2023-08-17T14:02:30;94426.00;;;32.88;61.02
5879;BME280;2965;42.640;23.370;2023-08-17T14:04:56;94437.38;;;32.82;64.24
5879;BME280;2965;42.640;23.370;2023-08-17T14:07:22;94429.50;;;32.98;62.12
5879;BME280;2965;42.640;23.370;2023-08-17T14:09:47;94436.53;;;32.99;64.09
5879;BME280;2965;42.640;23.370;2023-08-17T14:12:12;94428.97;;;32.66;62.02
5879;BME280;2965;42.640;23.370;2023-08-17T14:14:38;94432.41;;;32.46;66.06
5879;BME280;2965;42.640;23.370;2023-08-17T14:17:03;94439.41;;;32.47;62.77
5879;BME280;2965;42.640;23.370;2023-08-17T14:19:29;94440.22;;;32.38;63.46
5879;BME280;2965;42.640;23.370;2023-08-17T14:21:54;94438.00;;;32.23;61.57
5879;BME280;2965;42.640;23.370;2023-08-17T14:24:20;94429.25;;;32.18;61.44
5879;BME280;2965;42.640;23.370;2023-08-17T14:26:45;94448.22;;;31.92;63.54
5879;BME280;2965;42.640;23.370;2023-08-17T14:29:11;94448.84;;;32.06;63.61
5879;BME280;2965;42.640;23.370;2023-08-17T14:31:36;94440.56;;;31.59;65.21
5879;BME280;2965;42.640;23.370;2023-08-17T14:34:02;94439.28;;;31.48;66.07
5879;BME280;2965;42.640;23.370;2023-08-17T14:36:27;94444.53;;;31.44;70.16
5879;BME280;2965;42.640;23.370;2023-08-17T14:38:52;94448.50;;;31.81;67.53
5879;BME280;2965;42.640;23.370;2023-08-17T14:41:18;94445.97;;;32.28;68.48
5879;BME280;2965;42.640;23.370;2023-08-17T14:43:43;94445.97;;;32.28;61.11
5879;BME280;2965;42.640;23.370;2023-08-17T14:46:09;94440.88;;;32.01;64.80
5879;BME280;2965;42.640;23.370;2023-08-17T14:48:34;94449.03;;;31.92;65.11
5879;BME280;2965;42.640;23.370;2023-08-17T14:51:00;94452.34;;;31.80;66.61
5879;BME280;2965;42.640;23.370;2023-08-17T14:53:25;94451.69;;;32.01;64.66
5879;BME280;2965;42.640;23.370;2023-08-17T14:55:50;94441.53;;;32.06;66.90
5879;BME280;2965;42.640;23.370;2023-08-17T14:58:16;94448.22;;;31.92;66.09
5879;BME280;2965;42.640;23.370;2023-08-17T15:00:44;94438.06;;;31.88;66.08
5879;BME280;2965;42.640;23.370;2023-08-17T15:03:09;94445.03;;;31.72;65.27
5879;BME280;2965;42.640;23.370;2023-08-17T15:05:35;94445.69;;;31.86;65.90
5879;BME280;2965;42.640;23.370;2023-08-17T15:08:03;94448.19;;;31.74;65.48
5879;BME280;2965;42.640;23.370;2023-08-17T15:10:29;94444.06;;;31.68;63.76
5879;BME280;2965;42.640;23.370;2023-08-17T15:12:54;94444.56;;;31.96;68.39
5879;BME280;2965;42.640;23.370;2023-08-17T15:15:20;94441.19;;;32.25;67.60
5879;BME280;2965;42.640;23.370;2023-08-17T15:17:45;94443.72;;;32.30;70.77
5879;BME280;2965;42.640;23.370;2023-08-17T15:20:11;94439.25;;;32.34;65.73
5879;BME280;2965;42.640;23.370;2023-08-17T15:22:36;94445.28;;;32.31;68.82
5879;BME280;2965;42.640;23.370;2023-08-17T15:25:02;94439.78;;;32.19;66.08
5879;BME280;2965;42.640;23.370;2023-08-17T15:27:27;94443.72;;;32.39;67.90
5879;BME280;2965;42.640;23.370;2023-08-17T15:29:53;94444.84;;;32.29;68.45
5879;BME280;2965;42.640;23.370;2023-08-17T15:32:18;94444.88;;;31.95;70.57
5879;BME280;2965;42.640;23.370;2023-08-17T15:34:44;94448.06;;;31.79;69.49
5879;BME280;2965;42.640;23.370;2023-08-17T15:37:09;94441.19;;;31.56;69.06
5879;BME280;2965;42.640;23.370;2023-08-17T15:39:34;94440.25;;;31.34;66.89
5879;BME280;2965;42.640;23.370;2023-08-17T15:42:00;94452.97;;;31.60;66.00
5879;BME280;2965;42.640;23.370;2023-08-17T15:44:25;94447.75;;;32.07;66.83
5879;BME280;2965;42.640;23.370;2023-08-17T15:46:51;94438.47;;;32.25;69.58
5879;BME280;2965;42.640;23.370;2023-08-17T15:49:17;94438.94;;;32.27;69.35
5879;BME280;2965;42.640;23.370;2023-08-17T15:51:42;94431.75;;;32.31;65.67
5879;BME280;2965;42.640;23.370;2023-08-17T15:54:07;94441.81;;;32.22;64.20
5879;BME280;2965;42.640;23.370;2023-08-17T15:56:33;94436.97;;;32.54;64.17
5879;BME280;2965;42.640;23.370;2023-08-17T15:58:58;94439.22;;;32.52;64.19
5879;BME280;2965;42.640;23.370;2023-08-17T16:01:23;94437.59;;;32.68;65.87
5879;BME280;2965;42.640;23.370;2023-08-17T16:03:49;94438.75;;;32.97;62.78
5879;BME280;2965;42.640;23.370;2023-08-17T16:06:14;94431.28;;;32.85;61.88
5879;BME280;2965;42.640;23.370;2023-08-17T16:08:44;94440.47;;;33.01;61.78
5879;BME280;2965;42.640;23.370;2023-08-17T16:11:10;94449.78;;;33.21;63.75
5879;BME280;2965;42.640;23.370;2023-08-17T16:13:37;94449.00;;;33.42;60.50
5879;BME280;2965;42.640;23.370;2023-08-17T16:16:03;94444.28;;;33.59;61.22
5879;BME280;2965;42.640;23.370;2023-08-17T16:18:28;94454.41;;;33.71;66.77
5879;BME280;2965;42.640;23.370;2023-08-17T16:20:54;94446.69;;;33.61;61.01
5879;BME280;2965;42.640;23.370;2023-08-17T16:23:19;94452.63;;;33.75;61.51
5879;BME280;2965;42.640;23.370;2023-08-17T16:25:45;94448.06;;;33.46;62.72
5879;BME280;2965;42.640;23.370;2023-08-17T16:28:10;94456.25;;;33.08;61.72
5879;BME280;2965;42.640;23.370;2023-08-17T16:30:36;94451.91;;;33.07;59.86
5879;BME280;2965;42.640;23.370;2023-08-17T16:33:02;94457.56;;;32.84;61.63
5879;BME280;2965;42.640;23.370;2023-08-17T16:35:29;94448.31;;;33.03;61.82
5879;BME280;2965;42.640;23.370;2023-08-17T16:37:54;94454.06;;;32.93;62.76
5879;BME280;2965;42.640;23.370;2023-08-17T16:40:20;94466.13;;;33.04;66.36
5879;BME280;2965;42.640;23.370;2023-08-17T16:42:45;94463.13;;;32.88;68.59
5879;BME280;2965;42.640;23.370;2023-08-17T16:45:12;94463.72;;;32.64;62.07
5879;BME280;2965;42.640;23.370;2023-08-17T16:47:37;94464.16;;;32.66;66.81
5879;BME280;2965;42.640;23.370;2023-08-17T16:50:03;94465.66;;;32.55;69.41
5879;BME280;2965;42.640;23.370;2023-08-17T16:52:29;94471.66;;;32.69;68.38
5879;BME280;2965;42.640;23.370;2023-08-17T16:54:54;94469.28;;;32.68;69.77
5879;BME280;2965;42.640;23.370;2023-08-17T16:57:19;94469.78;;;32.61;69.08
5879;BME280;2965;42.640;23.370;2023-08-17T16:59:45;94477.28;;;32.47;69.14
5879;BME280;2965;42.640;23.370;2023-08-17T17:02:10;94482.53;;;32.34;69.98
5879;BME280;2965;42.640;23.370;2023-08-17T17:04:35;94483.03;;;32.28;71.97
5879;BME280;2965;42.640;23.370;2023-08-17T17:07:02;94489.09;;;32.07;72.79
5879;BME280;2965;42.640;23.370;2023-08-17T17:09:27;94484.03;;;31.88;74.19
5879;BME280;2965;42.640;23.370;2023-08-17T17:11:53;94482.38;;;31.53;74.27
5879;BME280;2965;42.640;23.370;2023-08-17T17:14:19;94486.97;;;31.44;72.69
5879;BME280;2965;42.640;23.370;2023-08-17T17:16:44;94486.28;;;31.29;73.49
5879;BME280;2965;42.640;23.370;2023-08-17T17:19:10;94494.19;;;31.17;74.64